createdAt,value
2022-09-21T00:00:01.703Z,6.17
2022-09-21T00:02:56.097Z,4.67
2022-09-21T00:05:43.278Z,3.87
2022-09-21T00:08:30.139Z,3.57
2022-09-21T00:11:18.904Z,6.47
2022-09-21T00:14:10.228Z,3.70
2022-09-21T00:16:57.072Z,4.57
2022-09-21T00:19:44.564Z,4.53
2022-09-21T00:22:31.501Z,4.73
2022-09-21T00:25:18.905Z,4.57
2022-09-21T00:28:05.796Z,4.17
2022-09-21T00:30:52.618Z,4.53
2022-09-21T00:33:40.489Z,3.97
2022-09-21T00:36:28.736Z,4.40
2022-09-21T00:39:15.566Z,3.93
2022-09-21T00:42:02.625Z,4.13
2022-09-21T00:44:49.658Z,3.27
2022-09-21T00:47:39.737Z,6.20
2022-09-21T00:50:26.749Z,5.23
2022-09-21T00:53:15.289Z,4.33
2022-09-21T00:56:03.465Z,5.27
2022-09-21T00:58:53.206Z,5.13
2022-09-21T01:01:42.194Z,3.90
2022-09-21T01:04:29.309Z,4.47
2022-09-21T01:07:20.769Z,4.17
2022-09-21T01:10:11.585Z,4.43
2022-09-21T01:13:08.618Z,4.00
2022-09-21T01:16:03.987Z,3.53
2022-09-21T01:18:56.421Z,3.60
2022-09-21T01:21:50.602Z,5.33
2022-09-21T01:24:51.514Z,5.10
2022-09-21T01:27:51.522Z,3.83
2022-09-21T01:30:42.273Z,3.70
2022-09-21T01:33:36.574Z,4.43
2022-09-21T01:36:28.178Z,5.60
2022-09-21T01:39:19.914Z,4.37
2022-09-21T01:42:07.730Z,4.17
2022-09-21T01:44:58.203Z,3.47
2022-09-21T01:47:48.642Z,4.23
2022-09-21T01:50:47.981Z,3.57
2022-09-21T01:53:38.635Z,4.43
2022-09-21T01:56:30.220Z,4.30
2022-09-21T01:59:22.015Z,3.77
2022-09-21T02:02:13.191Z,6.37
2022-09-21T02:05:01.699Z,5.30
2022-09-21T02:07:49.711Z,6.20
2022-09-21T02:10:42.319Z,7.67
2022-09-21T02:13:32.767Z,6.10
2022-09-21T02:16:31.716Z,5.67
2022-09-21T02:19:29.751Z,4.40
2022-09-21T02:22:30.200Z,4.07
2022-09-21T02:25:24.912Z,4.57
2022-09-21T02:28:21.640Z,7.43
2022-09-21T02:31:15.058Z,5.57
2022-09-21T02:34:10.192Z,5.20
2022-09-21T02:37:03.192Z,4.93
2022-09-21T02:39:59.228Z,3.90
2022-09-21T02:42:50.388Z,4.17
2022-09-21T02:45:44.368Z,3.90
2022-09-21T02:48:35.305Z,4.23
2022-09-21T02:51:28.702Z,4.10
2022-09-21T02:54:18.292Z,4.10
2022-09-21T02:57:07.460Z,4.43
2022-09-21T02:59:54.349Z,5.40
2022-09-21T03:02:43.880Z,4.67
2022-09-21T03:05:30.794Z,4.57
2022-09-21T03:08:18.116Z,4.90
2022-09-21T03:11:05.510Z,5.10
2022-09-21T03:13:53.000Z,5.07
2022-09-21T03:16:39.904Z,5.03
2022-09-21T03:19:27.617Z,5.93
2022-09-21T03:22:16.265Z,3.93
2022-09-21T03:25:04.162Z,3.40
2022-09-21T03:27:53.017Z,3.87
2022-09-21T03:30:41.389Z,5.63
2022-09-21T03:33:28.217Z,4.93
2022-09-21T03:36:15.041Z,4.50
2022-09-21T03:39:01.862Z,3.93
2022-09-21T03:41:49.782Z,3.93
2022-09-21T03:44:36.962Z,4.10
2022-09-21T03:47:24.435Z,3.63
2022-09-21T03:50:11.505Z,3.97
2022-09-21T03:52:58.655Z,3.97
2022-09-21T03:55:45.526Z,3.90
2022-09-21T03:58:32.341Z,4.67
2022-09-21T04:01:19.227Z,4.43
2022-09-21T04:04:06.726Z,3.80
2022-09-21T04:06:53.531Z,3.70
2022-09-21T04:09:41.006Z,3.90
2022-09-21T04:12:28.474Z,4.00
2022-09-21T04:15:18.686Z,3.70
2022-09-21T04:18:05.646Z,3.93
2022-09-21T04:20:53.134Z,3.03
2022-09-21T04:23:40.846Z,4.33
2022-09-21T04:26:29.647Z,3.90
2022-09-21T04:29:16.493Z,4.00
2022-09-21T04:32:04.370Z,4.03
2022-09-21T04:34:51.198Z,7.70
2022-09-21T04:37:38.654Z,4.10
2022-09-21T04:40:25.596Z,4.73
2022-09-21T04:43:12.447Z,3.93
2022-09-21T04:46:04.848Z,3.97
2022-09-21T04:48:51.679Z,4.13
2022-09-21T04:51:38.599Z,4.53
2022-09-21T04:54:26.263Z,3.47
2022-09-21T04:57:13.255Z,4.73
2022-09-21T05:00:00.176Z,3.93
2022-09-21T05:02:47.011Z,4.67
2022-09-21T05:05:34.348Z,3.27
2022-09-21T05:08:42.963Z,3.63
2022-09-21T05:11:30.159Z,4.83
2022-09-21T05:14:16.980Z,4.13
2022-09-21T05:17:03.823Z,3.23
2022-09-21T05:19:52.537Z,3.10
2022-09-21T05:22:39.368Z,3.40
2022-09-21T05:25:26.178Z,4.37
2022-09-21T05:28:14.245Z,7.40
2022-09-21T05:31:18.763Z,4.17
2022-09-21T05:34:16.827Z,4.97
2022-09-21T05:37:09.553Z,3.30
2022-09-21T05:39:57.173Z,3.83
2022-09-21T05:42:44.545Z,3.07
2022-09-21T05:45:32.890Z,3.10
2022-09-21T05:48:23.417Z,3.53
2022-09-21T05:51:17.701Z,4.43
2022-09-21T05:54:11.501Z,4.73
2022-09-21T05:57:03.959Z,7.67
2022-09-21T06:00:02.265Z,4.23
2022-09-21T06:03:36.278Z,4.90
2022-09-21T06:06:23.101Z,4.57
2022-09-21T06:09:09.942Z,5.10
2022-09-21T06:11:56.829Z,5.00
2022-09-21T06:14:43.653Z,6.53
2022-09-21T06:17:31.734Z,5.57
2022-09-21T06:20:19.281Z,5.70
2022-09-21T06:23:08.135Z,10.73
2022-09-21T06:25:58.455Z,5.67
2022-09-21T06:28:45.657Z,6.60
2022-09-21T06:31:32.558Z,8.40
2022-09-21T06:34:19.409Z,8.83
2022-09-21T06:37:06.878Z,11.77
2022-09-21T06:39:53.717Z,9.07
2022-09-21T06:42:40.534Z,11.17
2022-09-21T06:45:28.754Z,9.10
2022-09-21T06:48:15.611Z,10.73
2022-09-21T06:51:04.378Z,8.80
2022-09-21T06:53:55.322Z,12.67
2022-09-21T06:56:42.471Z,11.80
2022-09-21T06:59:29.287Z,10.37
2022-09-21T07:02:16.242Z,12.27
2022-09-21T07:05:04.105Z,12.63
2022-09-21T07:07:53.717Z,11.10
2022-09-21T07:10:41.359Z,11.97
2022-09-21T07:13:28.899Z,11.53
2022-09-21T07:16:15.796Z,12.93
2022-09-21T07:19:10.391Z,11.33
2022-09-21T07:21:57.735Z,11.87
2022-09-21T07:24:44.606Z,13.90
2022-09-21T07:27:33.205Z,11.10
2022-09-21T07:30:20.021Z,9.90
2022-09-21T07:33:07.506Z,11.90
2022-09-21T07:35:55.925Z,10.43
2022-09-21T07:38:43.796Z,12.27
2022-09-21T07:41:30.790Z,13.67
2022-09-21T07:44:19.668Z,12.07
2022-09-21T07:47:06.833Z,15.17
2022-09-21T07:49:54.724Z,11.23
2022-09-21T07:52:42.160Z,12.23
2022-09-21T07:55:29.297Z,14.90
2022-09-21T07:58:34.729Z,13.80
2022-09-21T08:01:22.774Z,13.73
2022-09-21T08:04:10.605Z,12.23
2022-09-21T08:06:57.437Z,15.67
2022-09-21T08:09:44.453Z,11.53
2022-09-21T08:12:31.297Z,14.37
2022-09-21T08:15:44.106Z,12.57
2022-09-21T08:18:25.665Z,12.33
2022-09-21T08:21:13.662Z,16.93
2022-09-21T08:24:00.781Z,16.83
2022-09-21T08:26:49.086Z,10.73
2022-09-21T08:29:35.943Z,14.37
2022-09-21T08:32:46.369Z,12.47
2022-09-21T08:35:30.221Z,18.50
2022-09-21T08:38:17.020Z,14.67
2022-09-21T08:41:15.521Z,16.30
2022-09-21T08:44:07.020Z,15.83
2022-09-21T08:47:02.768Z,17.27
2022-09-21T08:49:54.661Z,14.93
2022-09-21T08:52:45.030Z,16.77
2022-09-21T08:55:33.501Z,20.27
2022-09-21T08:58:23.323Z,14.03
2022-09-21T09:01:35.457Z,19.80
2022-09-21T09:04:35.767Z,12.13
2022-09-21T09:07:43.018Z,16.80
2022-09-21T09:10:37.570Z,15.68
2022-09-21T09:13:38.481Z,10.18
2022-09-21T09:16:33.298Z,12.02
2022-09-21T09:19:23.593Z,10.98
2022-09-21T09:22:17.162Z,9.85
2022-09-21T09:25:14.455Z,10.70
2022-09-21T09:28:14.318Z,10.90
2022-09-21T09:31:06.058Z,12.43
2022-09-21T09:33:59.757Z,13.10
2022-09-21T09:36:58.773Z,7.85
2022-09-21T09:39:53.611Z,10.60
2022-09-21T09:42:56.114Z,10.48
2022-09-21T09:45:54.088Z,9.30
2022-09-21T09:49:04.734Z,6.75
2022-09-21T09:51:52.570Z,8.43
2022-09-21T09:54:39.492Z,7.78
2022-09-21T09:57:29.125Z,6.32
2022-09-21T10:00:19.231Z,9.27
2022-09-21T10:03:16.506Z,5.18
2022-09-21T10:06:03.484Z,5.55
2022-09-21T10:08:52.334Z,8.02
2022-09-21T10:11:40.118Z,6.43
2022-09-21T10:14:32.242Z,6.78
2022-09-21T10:17:19.641Z,5.90
2022-09-21T10:20:16.344Z,5.97
2022-09-21T10:23:04.518Z,4.75
2022-09-21T10:25:58.251Z,4.05
2022-09-21T10:28:59.566Z,3.85
2022-09-21T10:31:57.123Z,4.57
2022-09-21T10:35:01.842Z,4.85
2022-09-21T10:38:08.634Z,5.90
2022-09-21T10:40:55.505Z,10.85
2022-09-21T10:43:44.004Z,9.07
2022-09-21T10:46:35.042Z,7.35
2022-09-21T10:49:25.005Z,6.75
2022-09-21T10:52:11.984Z,8.70
2022-09-21T10:54:59.778Z,5.35
2022-09-21T10:57:47.438Z,4.38
2022-09-21T11:00:41.090Z,7.20
2022-09-21T11:03:46.199Z,4.57
2022-09-21T11:06:38.299Z,4.13
2022-09-21T11:09:31.578Z,4.07
2022-09-21T11:12:35.173Z,5.65
2022-09-21T11:15:35.400Z,2.72
2022-09-21T11:18:32.954Z,4.15
2022-09-21T11:21:26.817Z,3.38
2022-09-21T11:24:22.214Z,3.25
2022-09-21T11:27:13.737Z,8.35
2022-09-21T11:30:03.817Z,5.00
2022-09-21T11:33:09.843Z,5.10
2022-09-21T11:36:07.190Z,5.78
2022-09-21T11:39:01.562Z,5.05
2022-09-21T11:42:10.287Z,3.78
2022-09-21T11:45:00.099Z,7.40
2022-09-21T11:48:02.142Z,4.28
2022-09-21T11:50:58.625Z,5.20
2022-09-21T11:54:04.998Z,5.07
2022-09-21T11:56:56.586Z,4.07
2022-09-21T11:59:59.608Z,6.28
2022-09-21T12:03:25.829Z,3.75
2022-09-21T12:06:27.056Z,4.57
2022-09-21T12:09:47.032Z,4.93
2022-09-21T12:12:41.276Z,4.85
2022-09-21T12:15:32.332Z,4.28
2022-09-21T12:18:27.600Z,5.53
2022-09-21T12:21:19.659Z,4.40
2022-09-21T12:24:15.285Z,6.93
2022-09-21T12:27:07.778Z,8.32
2022-09-21T12:30:00.390Z,6.95
2022-09-21T12:32:53.860Z,8.70
2022-09-21T12:35:45.853Z,6.97
2022-09-21T12:38:40.056Z,5.00
2022-09-21T12:41:33.520Z,8.05
2022-09-21T12:44:26.030Z,4.88
2022-09-21T12:47:14.408Z,7.32
2022-09-21T12:50:07.428Z,7.22
2022-09-21T12:52:56.965Z,7.00
2022-09-21T12:55:52.342Z,6.32
2022-09-21T12:58:49.861Z,6.00
2022-09-21T13:01:45.266Z,6.15
2022-09-21T13:04:43.707Z,5.38
2022-09-21T13:07:56.261Z,4.95
2022-09-21T13:10:49.216Z,3.95
2022-09-21T13:13:50.442Z,6.65
2022-09-21T13:16:38.697Z,6.43
2022-09-21T13:19:28.371Z,5.93
2022-09-21T13:22:23.108Z,3.97
2022-09-21T13:25:20.714Z,4.97
2022-09-21T13:28:23.401Z,4.97
2022-09-21T13:31:45.450Z,5.55
2022-09-21T13:34:34.631Z,5.05
2022-09-21T13:37:30.146Z,5.13
2022-09-21T13:40:48.331Z,3.65
2022-09-21T13:43:47.339Z,6.75
2022-09-21T13:46:55.606Z,4.72
2022-09-21T13:49:50.420Z,5.03
2022-09-21T13:52:42.837Z,4.38
2022-09-21T13:55:31.864Z,4.85
2022-09-21T13:58:22.928Z,5.88
2022-09-21T14:01:42.405Z,6.07
2022-09-21T14:04:26.193Z,6.50
2022-09-21T14:07:13.465Z,4.50
2022-09-21T14:10:03.713Z,4.03
2022-09-21T14:12:50.636Z,4.65
2022-09-21T14:15:39.303Z,5.05
2022-09-21T14:18:46.169Z,7.60
2022-09-21T14:21:33.054Z,6.88
2022-09-21T14:24:21.348Z,4.03
2022-09-21T14:27:16.805Z,6.45
2022-09-21T14:30:16.210Z,6.22
2022-09-21T14:33:14.064Z,3.38
2022-09-21T14:36:07.405Z,4.15
2022-09-21T14:38:59.625Z,3.75
2022-09-21T14:41:50.244Z,4.60
2022-09-21T14:44:39.414Z,3.20
2022-09-21T14:47:47.978Z,6.18
2022-09-21T14:50:41.036Z,4.47
2022-09-21T14:53:55.146Z,2.92
2022-09-21T14:57:01.231Z,4.80
2022-09-21T15:00:04.297Z,3.35
2022-09-21T15:03:04.877Z,4.13
2022-09-21T15:05:57.473Z,4.30
2022-09-21T15:09:14.040Z,4.70
2022-09-21T15:12:08.545Z,5.57
2022-09-21T15:15:04.288Z,4.18
2022-09-21T15:17:54.969Z,7.13
2022-09-21T15:20:44.266Z,4.25
2022-09-21T15:23:33.971Z,7.03
2022-09-21T15:26:28.227Z,4.93
2022-09-21T15:29:24.059Z,3.80
2022-09-21T15:32:25.102Z,3.60
2022-09-21T15:35:18.396Z,4.57
2022-09-21T15:38:29.688Z,3.55
2022-09-21T15:41:39.886Z,4.05
2022-09-21T15:44:33.568Z,6.85
2022-09-21T15:47:25.292Z,2.38
2022-09-21T15:50:13.612Z,3.60
2022-09-21T15:53:04.974Z,4.60
2022-09-21T15:55:52.570Z,4.75
2022-09-21T15:58:41.327Z,4.22
2022-09-21T16:01:28.606Z,6.93
2022-09-21T16:04:17.740Z,6.28
2022-09-21T16:07:06.694Z,3.80
2022-09-21T16:09:54.177Z,2.80
2022-09-21T16:12:42.056Z,5.05
2022-09-21T16:15:31.192Z,2.75
2022-09-21T16:18:31.439Z,7.18
2022-09-21T16:21:22.829Z,3.15
2022-09-21T16:24:17.897Z,4.07
2022-09-21T16:27:05.039Z,4.63
2022-09-21T16:29:53.569Z,5.45
2022-09-21T16:32:41.480Z,3.92
2022-09-21T16:35:28.486Z,3.17
2022-09-21T16:38:15.886Z,4.75
2022-09-21T16:41:02.762Z,6.43
2022-09-21T16:43:50.240Z,5.40
2022-09-21T16:46:37.114Z,5.80
2022-09-21T16:49:30.230Z,3.60
2022-09-21T16:52:17.520Z,4.13
2022-09-21T16:55:05.381Z,3.15
2022-09-21T16:57:52.338Z,2.63
2022-09-21T17:00:41.981Z,3.03
2022-09-21T17:03:30.756Z,3.57
2022-09-21T17:06:20.725Z,3.63
2022-09-21T17:09:25.841Z,5.13
2022-09-21T17:12:17.802Z,4.60
2022-09-21T17:15:06.997Z,2.90
2022-09-21T17:17:53.821Z,3.57
2022-09-21T17:20:42.870Z,4.53
2022-09-21T17:23:30.449Z,4.40
2022-09-21T17:26:20.377Z,4.97
2022-09-21T17:29:22.234Z,3.93
2022-09-21T17:32:10.322Z,3.27
2022-09-21T17:35:01.406Z,4.50
2022-09-21T17:37:48.297Z,3.33
2022-09-21T17:40:36.716Z,4.03
2022-09-21T17:43:40.501Z,5.07
2022-09-21T17:46:35.279Z,4.50
2022-09-21T17:49:22.696Z,5.37
2022-09-21T17:52:33.140Z,5.17
2022-09-21T17:55:20.379Z,5.17
2022-09-21T17:58:33.596Z,7.20
2022-09-21T18:01:29.847Z,5.87
2022-09-21T18:04:18.259Z,6.73
2022-09-21T18:07:05.843Z,7.40
2022-09-21T18:09:53.702Z,5.70
